VAM | Vabird-VBD

Virtual Vabird! Aerolínea Virtual de habla hispana, desde 2011




 INFORMACIÓN METAR y TAF
METAR FOR EYVI
ADDS - METARS form results

(2136 UTC 21 January 2021)
Data provider http://aviationweather.gov/metar/data/
 
METAR text: EYVI 212120Z 18013KT CAVOK 02/00 Q1003 R19/2///95 NOSIG
Conditions at: EYVI (VILNIUS INTL , LT) observed 2120 UTC 21 January 2021
Temperature: 2.0°C (36°F)
Dewpoint: 0.0°C (32°F) [RH = 87%]
Pressure (altimeter): 29.62 inches Hg (1003.0 mb)
Winds: from the S (180 degrees) at 15 MPH (13 knots; 6.7 m/s)
Visibility: 6 or more miles (10+ km)
Ceiling: ceiling and visibility are OK
Clouds: unknown
Weather: no significant weather observed at this time

METAR text: EYVI 212050Z 18014KT CAVOK 01/00 Q1003 R19/2///95 NOSIG
Conditions at: EYVI (VILNIUS INTL , LT) observed 2050 UTC 21 January 2021
Temperature: 1.0°C (34°F)
Dewpoint: 0.0°C (32°F) [RH = 93%]
Pressure (altimeter): 29.62 inches Hg (1003.0 mb)
Winds: from the S (180 degrees) at 16 MPH (14 knots; 7.2 m/s)
Visibility: 6 or more miles (10+ km)
Ceiling: ceiling and visibility are OK
Clouds: unknown
Weather: no significant weather observed at this time

Forecast for: AMD
Text: TAF AMD EYVI 211944Z 2119/2218 18014KT 5000 BR SCT005
Forecast period: 1900 UTC 21 January 2021 to 0200 UTC 22 January 2021
Forecast type: FROM: standard forecast or significant change
Winds: from the S (180 degrees) at 16 MPH (14 knots; 7.2 m/s)
Visibility: 3 miles (5 km)
Ceiling: at least 12,000 feet AGL
Clouds: scattered clouds at 500 feet AGL
Weather: BR  (mist)
Text: PROB40
Forecast period: 2100 UTC 21 January 2021 to 0200 UTC 22 January 2021
Forecast type: TEMPORARY: The following changes expected for less than half the time period
Visibility: 1.86 miles (2.99 km)
Ceiling: 500 feet AGL
Clouds: broken clouds at 500 feet AGL
Weather: no significant weather forecast for this period
Text: TEMPO 2121/2202 3000 BKN005
Forecast period: 0200 to 1400 UTC 22 January 2021
Forecast type: BECOMING: Conditions expected to become as follows by 0300 UTC 22 January 2021
Winds: from the S (180 degrees) at 16 MPH (14 knots; 7.2 m/s)
Visibility: 0.93 miles (1.50 km)
Ceiling: 200 feet AGL
Clouds: overcast cloud deck at 200 feet AGL
Weather: BR  (mist)
Text: BECMG 2202/2203 1500 OVC002
Forecast period: 0300 to 1400 UTC 22 January 2021
Forecast type: TEMPORARY: The following changes expected for less than half the time period
Visibility: 0.31 miles (0.50 km)
Ceiling: unknown
Clouds: missing
Weather: FZFG  (freezing fog)
Text: TEMPO 2203/2214 0500 FZFG
Forecast period: 1400 to 1800 UTC 22 January 2021
Forecast type: BECOMING: Conditions expected to become as follows by 1600 UTC 22 January 2021
Winds: from the S (180 degrees) at 16 MPH (14 knots; 7.2 m/s)
Visibility: 0.31 miles (0.50 km)
Ceiling: 200 feet AGL
Clouds: overcast cloud deck at 200 feet AGL
Weather: FG  (fog)

 MAPA DE AEROPUERTO

 INFORMACIÓN DE PISTA